LEMH/MAH METAR and TAF weather

Enter ICAO airport designator
Station Type Date Time Source
LEMH METAR 2022/08/12 14:00 UTC NOAA

LEMH 121400Z 21011KT 170V260 CAVOK 30/22 Q1014


Station Type Date Time Source
LEMH Decoded METAR 2022/08/12 14:00 UTC NOAA

Menorca / Mahon, Spain (LEMH) 39-52N 004-14E 82M
Aug 12, 2022 - 10:00 AM EDT / 2022.08.12 1400 UTC
Wind: from the SSW (210 degrees) at 13 MPH (11 KT) (direction variable):0
Visibility: greater than 7 mile(s):0
Temperature: 86 F (30 C)
Heat index: 91.8 F (33.2 C):1
Dew Point: 71 F (22 C)
Relative Humidity: 62%
Pressure (altimeter): 29.94 in. Hg (1014 hPa)
ob: LEMH 121400Z 21011KT 170V260 CAVOK 30/22 Q1014
cycle: 14

Station Type Date Time Source
LEMH TAF 2022/08/12 09:30 UTC NOAA

TAF LEMH 120800Z 1209/1309 VRB03KT CAVOK TX34/1212Z TN24/1305Z
BECMG 1209/1211 22010KT

Example: see airport list